Terminal Aerodrome Forecast
Issued by NWS

Home | Current Version | Previous Version | Text Only | Print | Product List | Glossary On
Versions: 1 2 3 4 5 6 7 8 9 10 11 12 13 14 15 16 17 18 19 20 21 22 23 24 25 26 27 28
000
FTUS43 KLSX 261900 AAA
TAFSUS
TAF AMD
KSUS 261906Z 2619/2718 14004KT 3/4SM -SN BR OVC009
     FM262100 16004KT 5SM -SNRA BR OVC010
     FM270000 29006KT 6SM BR VCSH OVC012
     FM270600 32010KT P6SM OVC015
     FM271400 31010KT P6SM BKN020=

USA.gov is the U.S. government's official web portal to all federal, state and local government web resources and services.